Time;durP1;ratioP1;P1;durP2;ratioP2;P2;SDS_P1;SDS_P2;PMS_P1;PMS_P2;Temp;Humidity;BMP_temperature;BMP_pressure;BME280_temperature;BME280_humidity;BME280_pressure;Samples;Min_cycle;Max_cycle;Signal;HPM_P1;HPM_P2
2023/09/02 00:02:15;;;;;;;0.00;0.00;;;15.50;81.80;;;;;;5012130;28;20042;-72
2023/09/02 00:04:40;;;;;;;0.00;0.00;;;15.50;82.00;;;;;;5012209;28;20112;-72
2023/09/02 00:07:06;;;;;;;0.00;0.00;;;15.50;82.10;;;;;;5011939;28;20042;-72
2023/09/02 00:09:32;;;;;;;0.00;0.00;;;15.50;81.90;;;;;;4999630;28;20037;-75
2023/09/02 00:11:57;;;;;;;0.00;0.00;;;15.50;82.20;;;;;;5030584;28;20037;-75
2023/09/02 00:14:23;;;;;;;0.00;0.00;;;15.40;82.10;;;;;;5030482;28;20759;-74
2023/09/02 00:16:48;;;;;;;0.00;0.00;;;15.40;82.00;;;;;;5030296;28;20046;-74
2023/09/02 00:19:14;;;;;;;0.00;0.00;;;15.50;82.20;;;;;;5025582;28;20100;-75
2023/09/02 00:21:39;;;;;;;0.00;0.00;;;15.40;82.30;;;;;;5011650;28;20081;-74
2023/09/02 00:24:05;;;;;;;0.00;0.00;;;15.40;82.30;;;;;;5024796;28;20037;-74
2023/09/02 00:26:32;;;;;;;0.00;0.00;;;15.40;82.10;;;;;;5030146;28;20098;-75
2023/09/02 00:28:59;;;;;;;0.00;0.00;;;15.40;82.20;;;;;;5025312;28;20546;-74
2023/09/02 00:31:24;;;;;;;0.00;0.00;;;15.40;82.20;;;;;;5012280;28;20058;-75
2023/09/02 00:33:50;;;;;;;0.00;0.00;;;15.30;82.20;;;;;;5012397;28;20438;-74
2023/09/02 00:36:16;;;;;;;0.00;0.00;;;15.30;82.20;;;;;;5029605;28;20489;-75
2023/09/02 00:38:42;;;;;;;0.00;0.00;;;15.30;82.20;;;;;;4996084;28;20041;-74
2023/09/02 00:41:18;;;;;;;0.00;0.00;;;15.40;82.20;;;;;;5026264;28;20184;-74
2023/09/02 00:43:44;;;;;;;0.00;0.00;;;15.30;82.20;;;;;;5026305;28;20045;-74
2023/09/02 00:46:09;;;;;;;0.00;0.00;;;15.40;82.20;;;;;;5013598;28;20057;-75
2023/09/02 00:48:36;;;;;;;0.00;0.00;;;15.40;82.20;;;;;;4997836;28;20045;-74
2023/09/02 00:51:02;;;;;;;0.00;0.00;;;15.30;82.30;;;;;;5024716;28;20119;-75
2023/09/02 00:53:28;;;;;;;0.00;0.00;;;15.30;82.40;;;;;;4997548;28;20090;-74
2023/09/02 00:55:54;;;;;;;0.00;0.00;;;15.40;82.50;;;;;;5029845;28;20546;-75
2023/09/02 00:58:20;;;;;;;0.00;0.00;;;15.40;82.60;;;;;;5029210;28;20136;-74
2023/09/02 01:00:47;;;;;;;0.00;0.00;;;15.30;82.50;;;;;;5016900;28;20176;-74
2023/09/02 01:03:14;;;;;;;0.00;0.00;;;15.30;82.50;;;;;;5015089;28;20041;-74
2023/09/02 01:05:40;;;;;;;0.00;0.00;;;15.30;82.60;;;;;;4997684;28;20112;-74
2023/09/02 01:08:06;;;;;;;0.00;0.00;;;15.30;82.60;;;;;;5010365;28;20053;-75
2023/09/02 01:10:37;;;;;;;0.00;0.00;;;15.30;82.70;;;;;;5017820;28;20050;-75
2023/09/02 01:13:03;;;;;;;0.00;0.00;;;15.30;82.70;;;;;;5010081;28;20125;-75
2023/09/02 01:15:30;;;;;;;0.00;0.00;;;15.30;82.70;;;;;;5012497;28;20049;-74
2023/09/02 01:17:56;;;;;;;0.03;0.03;;;15.30;82.70;;;;;;4999445;28;20489;-74
2023/09/02 01:20:26;;;;;;;0.08;0.08;;;15.30;82.60;;;;;;5021382;28;20045;-74
2023/09/02 01:23:26;;;;;;;0.10;0.10;;;15.30;82.50;;;;;;5007865;28;20045;-75
2023/09/02 01:26:00;;;;;;;0.00;0.00;;;15.20;82.60;;;;;;5009312;28;20042;-74
2023/09/02 01:28:30;;;;;;;0.10;0.10;;;15.30;82.70;;;;;;5025730;28;20575;-74
2023/09/02 01:30:56;;;;;;;0.05;0.05;;;15.30;82.60;;;;;;5029277;28;20047;-74
2023/09/02 01:33:26;;;;;;;0.00;0.00;;;15.30;82.70;;;;;;5012904;28;20465;-74
2023/09/02 01:35:52;;;;;;;0.00;0.00;;;15.30;82.80;;;;;;5030818;28;20075;-74
2023/09/02 01:38:21;;;;;;;0.00;0.00;;;15.20;82.80;;;;;;4996903;28;20053;-74
2023/09/02 01:40:50;;;;;;;0.00;0.00;;;15.30;82.70;;;;;;5030087;28;20076;-74
2023/09/02 01:43:20;;;;;;;0.00;0.00;;;15.30;82.70;;;;;;5029196;28;20402;-74
2023/09/02 01:45:46;;;;;;;0.00;0.00;;;15.20;82.70;;;;;;5030320;28;20125;-75
2023/09/02 01:48:12;;;;;;;0.00;0.00;;;15.20;82.70;;;;;;5030514;28;20045;-75
2023/09/02 01:50:40;;;;;;;0.00;0.00;;;15.20;82.70;;;;;;5030013;28;20076;-75
2023/09/02 01:53:08;;;;;;;0.00;0.00;;;15.30;82.80;;;;;;5030124;28;20474;-75
2023/09/02 01:55:35;;;;;;;0.00;0.00;;;15.30;82.70;;;;;;5029274;28;20081;-75
2023/09/02 01:58:01;;;;;;;0.05;0.05;;;15.20;82.60;;;;;;5030325;28;20053;-75
2023/09/02 02:00:27;;;;;;;0.00;0.00;;;15.20;82.60;;;;;;5030127;28;20128;-75
2023/09/02 02:02:55;;;;;;;0.43;0.30;;;15.10;82.80;;;;;;5030452;28;20136;-75
2023/09/02 02:05:52;;;;;;;0.00;0.00;;;15.10;82.80;;;;;;5030307;28;20056;-75
2023/09/02 02:08:29;;;;;;;0.00;0.00;;;15.10;82.70;;;;;;5001889;28;20140;-75
2023/09/02 02:10:57;;;;;;;0.00;0.00;;;15.10;82.70;;;;;;5025327;28;20080;-72
2023/09/02 02:13:23;;;;;;;0.00;0.00;;;15.00;82.70;;;;;;5012647;28;20037;-72
2023/09/02 02:15:49;;;;;;;0.00;0.00;;;15.00;82.70;;;;;;5029834;28;20103;-72
2023/09/02 02:18:14;;;;;;;0.00;0.00;;;15.00;82.70;;;;;;5029849;28;20051;-72
2023/09/02 02:20:54;;;;;;;0.00;0.00;;;15.00;83.00;;;;;;5029399;28;20072;-72
2023/09/02 02:23:19;;;;;;;0.00;0.00;;;15.00;83.10;;;;;;5029942;28;20056;-72
2023/09/02 02:25:45;;;;;;;0.00;0.00;;;15.00;82.90;;;;;;5029872;28;20050;-71
2023/09/02 02:28:11;;;;;;;0.00;0.00;;;14.90;82.70;;;;;;5030064;28;20048;-72
2023/09/02 02:30:36;;;;;;;0.00;0.00;;;14.90;82.90;;;;;;5016843;28;20461;-72
2023/09/02 02:33:02;;;;;;;0.00;0.00;;;14.90;83.00;;;;;;5010248;28;20042;-72
2023/09/02 02:35:34;;;;;;;0.10;0.10;;;14.90;83.10;;;;;;4992546;28;20125;-73
2023/09/02 02:37:59;;;;;;;0.00;0.00;;;14.90;83.10;;;;;;5010436;28;20049;-73
2023/09/02 02:40:28;;;;;;;0.00;0.00;;;14.90;83.10;;;;;;4994838;28;20133;-73
2023/09/02 02:42:54;;;;;;;0.05;0.05;;;14.90;83.10;;;;;;5009895;28;20041;-74
2023/09/02 02:45:19;;;;;;;0.00;0.00;;;14.90;83.10;;;;;;5010396;28;20759;-73
2023/09/02 02:47:45;;;;;;;0.00;0.00;;;14.90;83.00;;;;;;5017158;28;20046;-73
2023/09/02 02:50:11;;;;;;;0.00;0.00;;;14.80;83.30;;;;;;5028522;28;20755;-73
2023/09/02 02:52:37;;;;;;;0.00;0.00;;;14.80;83.40;;;;;;5029263;28;20049;-73
2023/09/02 02:55:03;;;;;;;0.00;0.00;;;14.80;83.30;;;;;;5029925;28;20140;-73
2023/09/02 02:57:29;;;;;;;0.00;0.00;;;14.80;83.50;;;;;;5012173;28;20057;-73
2023/09/02 02:59:54;;;;;;;0.00;0.00;;;14.80;83.60;;;;;;5029105;28;20087;-74
2023/09/02 03:02:20;;;;;;;0.00;0.00;;;14.80;83.70;;;;;;5029736;28;20095;-73
2023/09/02 03:04:48;;;;;;;0.00;0.00;;;14.80;83.80;;;;;;5019669;28;20042;-73
2023/09/02 03:07:14;;;;;;;0.00;0.00;;;14.80;83.70;;;;;;5028889;28;20050;-73
2023/09/02 03:09:40;;;;;;;0.00;0.00;;;14.70;83.80;;;;;;5032949;28;20064;-72
2023/09/02 03:12:06;;;;;;;0.00;0.00;;;14.70;83.80;;;;;;5006334;28;20045;-73
2023/09/02 03:14:32;;;;;;;0.00;0.00;;;14.80;83.80;;;;;;5027288;28;20042;-73
2023/09/02 03:16:58;;;;;;;0.00;0.00;;;14.80;84.00;;;;;;5033367;28;20057;-74
2023/09/02 03:19:23;;;;;;;0.00;0.00;;;14.80;84.00;;;;;;5032904;28;20651;-72
2023/09/02 03:21:49;;;;;;;0.00;0.00;;;14.70;83.80;;;;;;5033218;28;20037;-73
2023/09/02 03:24:14;;;;;;;0.00;0.00;;;14.70;83.80;;;;;;5032299;28;20390;-73
2023/09/02 03:26:40;;;;;;;0.03;0.03;;;14.80;83.90;;;;;;5015575;28;20056;-73
2023/09/02 03:29:06;;;;;;;0.00;0.00;;;14.80;84.10;;;;;;5033076;28;20049;-73
2023/09/02 03:31:31;;;;;;;0.00;0.00;;;14.80;84.30;;;;;;5015354;28;20783;-73
2023/09/02 03:33:57;;;;;;;0.00;0.00;;;14.80;84.30;;;;;;5024799;28;20076;-72
2023/09/02 03:36:22;;;;;;;0.00;0.00;;;14.80;84.40;;;;;;5013419;28;20046;-73
2023/09/02 03:38:48;;;;;;;0.00;0.00;;;14.80;84.20;;;;;;5025457;28;20049;-73
2023/09/02 03:41:17;;;;;;;0.00;0.00;;;14.80;84.10;;;;;;5016374;28;20044;-73
2023/09/02 03:43:44;;;;;;;0.00;0.00;;;14.80;84.00;;;;;;5025883;28;20046;-73
2023/09/02 03:46:10;;;;;;;0.05;0.05;;;14.70;83.90;;;;;;5012727;28;20501;-73
2023/09/02 03:48:36;;;;;;;0.00;0.00;;;14.80;84.10;;;;;;5030924;28;20040;-73
2023/09/02 03:51:05;;;;;;;0.00;0.00;;;14.80;84.10;;;;;;5030819;28;20049;-70
2023/09/02 03:53:32;;;;;;;0.00;0.00;;;14.70;84.00;;;;;;5027823;28;20060;-70
2023/09/02 03:55:58;;;;;;;0.00;0.00;;;14.80;83.90;;;;;;5021662;28;20124;-70
2023/09/02 03:58:25;;;;;;;0.30;0.30;;;14.80;83.80;;;;;;5012656;28;20045;-70
2023/09/02 04:00:50;;;;;;;0.00;0.00;;;14.70;83.90;;;;;;5022196;28;20053;-70
2023/09/02 04:03:19;;;;;;;0.00;0.00;;;14.70;84.00;;;;;;5026533;28;20164;-70
2023/09/02 04:05:46;;;;;;;0.00;0.00;;;14.70;84.10;;;;;;5024331;28;20045;-70
2023/09/02 04:08:12;;;;;;;0.00;0.00;;;14.80;84.00;;;;;;5030126;28;20044;-70
2023/09/02 04:10:38;;;;;;;0.00;0.00;;;14.70;84.00;;;;;;5031630;28;20045;-70
2023/09/02 04:13:03;;;;;;;0.00;0.00;;;14.70;84.10;;;;;;5029850;28;20688;-70
2023/09/02 04:15:29;;;;;;;0.00;0.00;;;14.60;84.00;;;;;;5031058;28;20053;-70
2023/09/02 04:17:54;;;;;;;0.10;0.10;;;14.60;84.00;;;;;;5031311;28;20045;-70
2023/09/02 04:20:20;;;;;;;0.00;0.00;;;14.60;84.00;;;;;;5030283;28;20049;-70
2023/09/02 04:22:46;;;;;;;0.00;0.00;;;14.60;84.10;;;;;;5030546;28;20045;-70
2023/09/02 04:25:14;;;;;;;0.00;0.00;;;14.50;84.10;;;;;;5030779;28;20049;-70
2023/09/02 04:27:39;;;;;;;0.00;0.00;;;14.50;84.20;;;;;;5031149;28;20068;-70
2023/09/02 04:30:05;;;;;;;0.00;0.00;;;14.40;84.00;;;;;;5030725;28;20041;-70
2023/09/02 04:32:31;;;;;;;0.00;0.00;;;14.40;84.00;;;;;;5031340;28;20056;-70
2023/09/02 04:34:57;;;;;;;0.00;0.00;;;14.30;84.10;;;;;;5030488;28;20065;-70
2023/09/02 04:37:22;;;;;;;0.00;0.00;;;14.30;84.30;;;;;;5031268;28;20407;-70
2023/09/02 04:39:48;;;;;;;0.00;0.00;;;14.30;84.40;;;;;;5030976;28;20056;-70
2023/09/02 04:42:13;;;;;;;0.00;0.00;;;14.30;84.30;;;;;;5024711;28;20546;-70
2023/09/02 04:44:39;;;;;;;0.00;0.00;;;14.20;84.50;;;;;;5027119;28;20165;-70
2023/09/02 04:47:06;;;;;;;0.00;0.00;;;14.20;84.40;;;;;;5030739;28;20512;-70
2023/09/02 04:49:32;;;;;;;0.00;0.00;;;14.20;84.30;;;;;;5024000;28;20469;-70
2023/09/02 04:51:58;;;;;;;0.10;0.10;;;14.20;84.20;;;;;;5027987;28;20045;-70
2023/09/02 04:54:24;;;;;;;0.00;0.00;;;14.20;84.20;;;;;;5028958;28;20053;-72
2023/09/02 04:56:51;;;;;;;0.00;0.00;;;14.20;84.70;;;;;;5021754;28;20072;-73
2023/09/02 04:59:17;;;;;;;0.10;0.10;;;14.20;84.60;;;;;;5020516;28;20064;-73
2023/09/02 05:01:43;;;;;;;0.00;0.00;;;14.20;84.40;;;;;;5017930;28;20080;-73
2023/09/02 05:04:08;;;;;;;0.00;0.00;;;14.20;84.50;;;;;;5027009;28;20060;-75
2023/09/02 05:06:34;;;;;;;0.00;0.00;;;14.20;84.60;;;;;;4999365;28;20049;-73
2023/09/02 05:08:59;;;;;;;0.00;0.00;;;14.20;84.70;;;;;;5020938;28;20045;-73
2023/09/02 05:11:25;;;;;;;0.00;0.00;;;14.20;84.90;;;;;;5029220;28;20060;-72
2023/09/02 05:13:51;;;;;;;0.00;0.00;;;14.20;84.80;;;;;;5030413;28;20053;-73
2023/09/02 05:16:16;;;;;;;0.00;0.00;;;14.20;84.80;;;;;;5011832;28;20045;-73
2023/09/02 05:18:42;;;;;;;0.10;0.10;;;14.20;84.80;;;;;;5028742;28;20041;-73
2023/09/02 05:21:08;;;;;;;0.00;0.00;;;14.30;84.80;;;;;;5011303;28;20042;-72
2023/09/02 05:23:33;;;;;;;0.00;0.00;;;14.20;84.70;;;;;;5018693;28;20115;-73
2023/09/02 05:25:59;;;;;;;0.20;0.20;;;14.10;84.70;;;;;;5028739;28;20053;-75
2023/09/02 05:28:25;;;;;;;0.00;0.00;;;14.10;84.80;;;;;;5010332;28;20057;-73
2023/09/02 05:30:51;;;;;;;0.10;0.10;;;14.10;84.90;;;;;;4994564;28;20046;-73
2023/09/02 05:33:16;;;;;;;0.00;0.00;;;14.10;85.00;;;;;;5027974;28;20433;-74
2023/09/02 05:35:43;;;;;;;0.00;0.00;;;14.10;85.00;;;;;;5029122;28;20047;-73
2023/09/02 05:38:09;;;;;;;0.00;0.00;;;14.10;84.90;;;;;;5027908;28;20493;-73
2023/09/02 05:40:35;;;;;;;0.20;0.20;;;14.10;85.00;;;;;;5011226;28;20068;-73
2023/09/02 05:43:01;;;;;;;0.00;0.00;;;14.10;84.90;;;;;;5027978;28;20053;-73
2023/09/02 05:45:26;;;;;;;0.00;0.00;;;14.10;85.00;;;;;;5018846;28;20068;-73
2023/09/02 05:47:52;;;;;;;0.00;0.00;;;14.10;85.10;;;;;;5028498;28;20045;-73
2023/09/02 05:50:18;;;;;;;0.00;0.00;;;14.10;85.20;;;;;;5026349;28;20061;-73
2023/09/02 05:52:44;;;;;;;0.00;0.00;;;14.10;85.40;;;;;;5029013;28;20164;-70
2023/09/02 05:55:09;;;;;;;0.22;0.22;;;14.10;85.50;;;;;;5028555;28;20052;-73
2023/09/02 05:57:35;;;;;;;0.00;0.00;;;14.20;85.50;;;;;;5028166;28;20096;-72
2023/09/02 06:00:03;;;;;;;0.10;0.10;;;14.20;85.60;;;;;;5028062;28;20057;-70
2023/09/02 06:02:34;;;;;;;0.00;0.00;;;14.20;85.50;;;;;;5028046;28;20144;-70
2023/09/02 06:05:00;;;;;;;0.00;0.00;;;14.30;85.50;;;;;;5026313;28;20042;-70
2023/09/02 06:07:25;;;;;;;0.00;0.00;;;14.30;85.50;;;;;;5020023;28;20091;-70
2023/09/02 06:09:51;;;;;;;0.00;0.00;;;14.30;85.40;;;;;;5028838;28;20045;-70
2023/09/02 06:12:17;;;;;;;0.00;0.00;;;14.40;85.50;;;;;;5027394;28;20502;-70
2023/09/02 06:14:42;;;;;;;0.00;0.00;;;14.40;85.50;;;;;;5024816;28;20067;-70
2023/09/02 06:17:08;;;;;;;0.00;0.00;;;14.50;85.40;;;;;;5028128;28;20044;-72
2023/09/02 06:19:36;;;;;;;0.00;0.00;;;14.50;85.50;;;;;;5010826;28;20091;-73
2023/09/02 06:22:02;;;;;;;0.00;0.00;;;14.60;85.60;;;;;;5009692;28;20518;-73
2023/09/02 06:24:28;;;;;;;0.00;0.00;;;14.60;85.60;;;;;;5028426;28;20041;-73
2023/09/02 06:26:54;;;;;;;0.00;0.00;;;14.60;85.50;;;;;;5022642;28;20121;-72
2023/09/02 06:29:19;;;;;;;0.00;0.00;;;14.60;85.60;;;;;;5018976;28;20486;-73
2023/09/02 06:31:45;;;;;;;0.00;0.00;;;14.60;85.50;;;;;;5009186;28;20050;-74
2023/09/02 06:34:11;;;;;;;0.05;0.05;;;14.70;85.70;;;;;;5008639;28;20423;-73
2023/09/02 06:36:37;;;;;;;0.00;0.00;;;14.80;85.60;;;;;;5010913;28;20038;-73
2023/09/02 06:39:04;;;;;;;0.00;0.00;;;14.80;85.50;;;;;;5025590;28;20056;-73
2023/09/02 06:41:30;;;;;;;0.00;0.00;;;14.90;85.60;;;;;;5018688;28;20054;-73
2023/09/02 06:43:56;;;;;;;0.00;0.00;;;15.00;85.60;;;;;;5020955;28;20060;-73
2023/09/02 06:46:22;;;;;;;0.00;0.00;;;15.00;85.50;;;;;;5027536;28;20048;-73
2023/09/02 06:48:48;;;;;;;0.00;0.00;;;15.00;85.70;;;;;;5012608;28;20129;-73
2023/09/02 06:51:14;;;;;;;0.00;0.00;;;15.20;85.80;;;;;;5025048;28;20191;-73
2023/09/02 06:53:41;;;;;;;0.00;0.00;;;15.20;85.60;;;;;;5019187;28;20057;-73
2023/09/02 06:56:08;;;;;;;0.00;0.00;;;15.20;85.40;;;;;;5012524;28;20049;-73
2023/09/02 06:58:35;;;;;;;0.00;0.00;;;15.30;85.30;;;;;;5024112;28;20913;-73
2023/09/02 07:01:01;;;;;;;0.00;0.00;;;15.30;85.30;;;;;;5031392;28;20045;-73
2023/09/02 07:03:26;;;;;;;0.00;0.00;;;15.40;85.20;;;;;;5030465;28;20045;-73
2023/09/02 07:05:52;;;;;;;0.00;0.00;;;15.50;85.40;;;;;;5030794;28;20436;-73
2023/09/02 07:08:17;;;;;;;0.00;0.00;;;15.50;85.70;;;;;;5031424;28;20064;-73
2023/09/02 07:10:43;;;;;;;0.00;0.00;;;15.60;85.80;;;;;;5032215;28;20041;-73
2023/09/02 07:13:08;;;;;;;0.10;0.10;;;15.60;85.90;;;;;;5031341;28;20053;-73
2023/09/02 07:15:37;;;;;;;0.00;0.00;;;15.70;85.80;;;;;;5001170;28;20042;-74
2023/09/02 07:18:03;;;;;;;0.00;0.00;;;15.80;85.90;;;;;;5030523;28;20057;-73
2023/09/02 07:20:28;;;;;;;0.10;0.10;;;15.90;85.90;;;;;;5029272;28;20576;-73
2023/09/02 07:22:54;;;;;;;0.00;0.00;;;15.90;85.80;;;;;;5030722;28;20048;-73
2023/09/02 07:25:19;;;;;;;0.00;0.00;;;16.00;85.90;;;;;;5021933;28;20139;-73
2023/09/02 07:27:45;;;;;;;0.00;0.00;;;16.10;86.00;;;;;;5017828;28;20053;-74
2023/09/02 07:30:12;;;;;;;0.00;0.00;;;16.10;85.90;;;;;;5026470;28;20527;-73
2023/09/02 07:32:38;;;;;;;0.00;0.00;;;16.10;85.70;;;;;;5017881;28;20090;-74
2023/09/02 07:35:04;;;;;;;0.00;0.00;;;16.20;85.50;;;;;;5023239;28;20412;-73
2023/09/02 07:37:29;;;;;;;0.00;0.00;;;16.30;85.60;;;;;;5030687;28;20057;-73
2023/09/02 07:39:55;;;;;;;0.00;0.00;;;16.30;85.40;;;;;;5031144;28;20050;-73
2023/09/02 07:42:21;;;;;;;0.00;0.00;;;16.40;85.40;;;;;;5025008;28;20076;-74
2023/09/02 07:44:46;;;;;;;0.00;0.00;;;16.40;85.50;;;;;;5028258;28;20521;-71
2023/09/02 07:47:12;;;;;;;0.00;0.00;;;16.50;85.50;;;;;;5010779;28;20061;-71
2023/09/02 07:49:38;;;;;;;0.00;0.00;;;16.60;85.30;;;;;;5030166;28;20498;-71
2023/09/02 07:52:03;;;;;;;0.00;0.00;;;16.60;85.10;;;;;;4993823;28;20042;-71
2023/09/02 07:54:29;;;;;;;0.00;0.00;;;16.60;84.90;;;;;;5010250;28;20561;-71
2023/09/02 07:56:54;;;;;;;0.00;0.00;;;16.70;84.80;;;;;;5019239;28;20042;-71
2023/09/02 07:59:20;;;;;;;0.00;0.00;;;16.80;84.90;;;;;;5031055;28;20121;-70
2023/09/02 08:01:46;;;;;;;0.00;0.00;;;16.80;84.50;;;;;;4990214;28;20793;-69
2023/09/02 08:04:11;;;;;;;0.20;0.20;;;16.90;84.20;;;;;;5024886;28;20132;-68
2023/09/02 08:06:37;;;;;;;0.00;0.00;;;17.00;84.00;;;;;;5014225;28;20103;-70
2023/09/02 08:09:03;;;;;;;0.00;0.00;;;17.10;84.00;;;;;;5021150;28;20069;-71
2023/09/02 08:11:28;;;;;;;0.10;0.10;;;17.10;83.90;;;;;;5021641;28;20053;-76
2023/09/02 08:13:54;;;;;;;0.00;0.00;;;17.10;83.60;;;;;;5028736;28;20160;-69
2023/09/02 08:16:19;;;;;;;0.00;0.00;;;17.20;83.40;;;;;;5024211;28;20041;-69
2023/09/02 08:18:45;;;;;;;0.10;0.10;;;17.30;83.00;;;;;;4993349;28;20133;-71
2023/09/02 08:21:11;;;;;;;0.00;0.00;;;17.30;82.90;;;;;;4998921;28;20076;-70
2023/09/02 08:23:38;;;;;;;0.10;0.10;;;17.30;82.80;;;;;;5015701;28;20510;-71
2023/09/02 08:26:13;;;;;;;0.10;0.10;;;17.40;82.70;;;;;;4999472;28;20098;-70
2023/09/02 08:28:40;;;;;;;0.10;0.10;;;17.40;82.30;;;;;;5018898;28;20041;-69
2023/09/02 08:31:06;;;;;;;0.10;0.10;;;17.50;82.30;;;;;;5018440;28;20049;-70
2023/09/02 08:33:31;;;;;;;0.08;0.08;;;17.50;82.10;;;;;;4999383;28;20038;-70
2023/09/02 08:35:57;;;;;;;0.00;0.00;;;17.60;82.00;;;;;;5013473;28;20050;-70
2023/09/02 08:38:22;;;;;;;0.00;0.00;;;17.60;81.90;;;;;;4999736;28;20049;-67
2023/09/02 08:40:52;;;;;;;0.00;0.00;;;17.60;81.80;;;;;;5021431;28;20422;-67
2023/09/02 08:43:18;;;;;;;0.00;0.00;;;17.70;81.80;;;;;;5017241;28;20050;-68
2023/09/02 08:45:48;;;;;;;0.00;0.00;;;17.70;81.50;;;;;;5013788;28;20067;-68
2023/09/02 08:48:22;;;;;;;0.00;0.00;;;17.80;81.20;;;;;;5008227;28;20045;-67
2023/09/02 08:50:48;;;;;;;0.32;0.32;;;17.90;81.10;;;;;;5018840;28;20434;-64
2023/09/02 08:53:14;;;;;;;0.00;0.00;;;17.90;80.90;;;;;;5017496;28;20064;-80
2023/09/02 08:55:41;;;;;;;0.00;0.00;;;18.00;81.40;;;;;;5001393;28;20064;-79
2023/09/02 08:58:08;;;;;;;0.00;0.00;;;18.20;81.20;;;;;;4999812;28;20056;-80
2023/09/02 09:00:35;;;;;;;0.10;0.10;;;18.30;80.30;;;;;;5001111;28;21390;-74
2023/09/02 09:03:03;;;;;;;0.00;0.00;;;18.50;80.10;;;;;;5017365;28;20049;-67
2023/09/02 09:05:29;;;;;;;0.00;0.00;;;18.70;79.80;;;;;;5016229;28;20128;-70
2023/09/02 09:07:55;;;;;;;0.00;0.00;;;18.70;79.20;;;;;;4998961;28;20477;-64
2023/09/02 09:10:22;;;;;;;0.00;0.00;;;18.70;78.90;;;;;;5017292;28;20049;-64
2023/09/02 09:12:51;;;;;;;0.05;0.05;;;18.60;79.00;;;;;;5018760;28;20045;-67
2023/09/02 09:15:17;;;;;;;0.00;0.00;;;18.60;78.90;;;;;;5018156;28;20045;-67
2023/09/02 09:17:47;;;;;;;0.00;0.00;;;18.60;78.60;;;;;;5017272;28;20045;-69
2023/09/02 09:20:14;;;;;;;0.08;0.08;;;18.60;78.80;;;;;;5017866;28;20045;-72
2023/09/02 09:22:52;;;;;;;0.00;0.00;;;18.80;79.10;;;;;;5017745;28;20054;-65
2023/09/02 09:25:19;;;;;;;0.00;0.00;;;19.00;79.10;;;;;;5016621;28;20046;-67
2023/09/02 09:27:45;;;;;;;0.00;0.00;;;19.10;78.70;;;;;;5017399;28;20053;-68
2023/09/02 09:30:30;;;;;;;0.00;0.00;;;19.10;78.00;;;;;;4994857;28;20048;-67
2023/09/02 09:33:05;;;;;;;0.00;0.00;;;19.10;78.10;;;;;;4983598;28;20171;-67
2023/09/02 09:35:33;;;;;;;0.00;0.00;;;19.10;77.60;;;;;;5016070;28;20034;-66
2023/09/02 09:38:00;;;;;;;0.00;0.00;;;19.10;77.20;;;;;;5017151;28;20041;-74
2023/09/02 09:40:38;;;;;;;0.20;0.20;;;19.20;77.40;;;;;;5018058;28;20509;-69
2023/09/02 09:43:16;;;;;;;0.00;0.00;;;19.20;77.30;;;;;;5017505;28;20041;-70
2023/09/02 09:45:50;;;;;;;0.03;0.03;;;19.30;77.50;;;;;;5017157;28;20049;-72
2023/09/02 09:48:15;;;;;;;0.00;0.00;;;19.30;77.60;;;;;;5015063;28;20117;-69
2023/09/02 09:50:41;;;;;;;0.00;0.00;;;19.40;77.30;;;;;;5018188;28;20612;-72
2023/09/02 09:53:09;;;;;;;0.00;0.00;;;19.40;77.70;;;;;;5000225;28;20050;-72
2023/09/02 09:55:35;;;;;;;0.00;0.00;;;19.50;77.70;;;;;;4999864;28;20049;-72
2023/09/02 09:58:02;;;;;;;0.00;0.00;;;19.50;77.70;;;;;;5016886;28;20037;-72
2023/09/02 10:00:29;;;;;;;0.00;0.00;;;19.50;77.30;;;;;;5018338;28;20053;-72
2023/09/02 10:02:59;;;;;;;0.00;0.00;;;19.50;77.00;;;;;;5017232;28;20038;-72
2023/09/02 10:05:30;;;;;;;0.00;0.00;;;19.50;76.50;;;;;;5015735;28;20053;-72
2023/09/02 10:08:06;;;;;;;0.00;0.00;;;19.60;76.50;;;;;;4998782;28;20089;-72
2023/09/02 10:10:37;;;;;;;0.00;0.00;;;19.60;76.10;;;;;;4999595;28;20057;-72
2023/09/02 10:13:04;;;;;;;0.00;0.00;;;19.70;76.10;;;;;;5017905;28;20526;-72
2023/09/02 10:15:30;;;;;;;0.00;0.00;;;19.70;76.30;;;;;;5018595;28;20049;-71
2023/09/02 10:18:05;;;;;;;0.00;0.00;;;19.90;76.10;;;;;;5017296;28;20087;-72
2023/09/02 10:20:35;;;;;;;0.00;0.00;;;19.90;76.50;;;;;;4999262;28;20046;-72
2023/09/02 10:23:12;;;;;;;0.00;0.00;;;19.80;75.30;;;;;;4994499;28;20045;-72
2023/09/02 10:25:44;;;;;;;0.00;0.00;;;19.80;74.90;;;;;;4999534;28;20083;-72
2023/09/02 10:28:13;;;;;;;0.00;0.00;;;19.70;74.50;;;;;;5017801;28;20123;-72
2023/09/02 10:30:54;;;;;;;0.00;0.00;;;19.70;74.70;;;;;;5017402;28;20057;-72
2023/09/02 10:33:43;;;;;;;0.00;0.00;;;19.70;75.30;;;;;;5016294;28;20084;-72
2023/09/02 10:36:09;;;;;;;0.00;0.00;;;19.70;75.00;;;;;;5017617;28;20085;-72
2023/09/02 10:38:44;;;;;;;0.00;0.00;;;19.90;74.90;;;;;;5017496;28;20060;-72
2023/09/02 10:41:16;;;;;;;0.00;0.00;;;20.10;75.00;;;;;;4998567;28;20157;-72
2023/09/02 10:43:45;;;;;;;0.00;0.00;;;20.10;74.00;;;;;;5017087;28;20211;-72
2023/09/02 10:46:11;;;;;;;3.83;0.52;;;20.20;73.70;;;;;;4998466;28;20053;-72
2023/09/02 10:48:39;;;;;;;0.00;0.00;;;20.40;74.00;;;;;;5017432;28;20037;-72
2023/09/02 10:51:06;;;;;;;0.00;0.00;;;20.50;73.90;;;;;;5018126;28;20124;-72
2023/09/02 10:54:00;;;;;;;0.00;0.00;;;20.60;73.00;;;;;;5017034;28;20045;-72
2023/09/02 10:56:34;;;;;;;0.00;0.00;;;20.70;73.40;;;;;;4998619;28;20528;-73
2023/09/02 10:59:02;;;;;;;0.00;0.00;;;20.70;72.50;;;;;;5017147;28;20405;-73
2023/09/02 11:01:47;;;;;;;2.20;0.32;;;20.60;72.60;;;;;;5016269;28;20049;-72
2023/09/02 11:04:16;;;;;;;0.00;0.00;;;20.50;72.60;;;;;;5016646;28;20041;-73
2023/09/02 11:07:22;;;;;;;0.00;0.00;;;20.40;71.90;;;;;;5016030;28;20057;-73
2023/09/02 11:09:55;;;;;;;0.00;0.00;;;20.30;71.80;;;;;;4999012;28;20053;-73
2023/09/02 11:12:21;;;;;;;0.20;0.20;;;20.40;71.40;;;;;;5016459;28;20413;-72
2023/09/02 11:15:09;;;;;;;0.00;0.00;;;20.50;71.30;;;;;;4999136;28;20044;-73
2023/09/02 11:17:39;;;;;;;0.00;0.00;;;20.60;71.40;;;;;;4995242;28;20041;-72
2023/09/02 11:20:13;;;;;;;0.10;0.10;;;20.60;71.80;;;;;;5000786;28;20077;-72
2023/09/02 11:22:56;;;;;;;0.00;0.00;;;20.60;71.00;;;;;;5020677;28;20053;-72
2023/09/02 11:25:33;;;;;;;0.00;0.00;;;20.80;71.50;;;;;;5001308;28;20049;-72
2023/09/02 11:28:01;;;;;;;0.00;0.00;;;20.90;72.10;;;;;;5016996;28;20045;-72
2023/09/02 11:30:29;;;;;;;0.00;0.00;;;21.00;71.70;;;;;;5018281;28;20125;-68
2023/09/02 11:32:56;;;;;;;0.10;0.10;;;21.10;71.50;;;;;;5023493;28;20049;-68
2023/09/02 11:35:26;;;;;;;0.00;0.00;;;21.30;72.00;;;;;;5021465;28;20085;-68
2023/09/02 11:37:52;;;;;;;0.00;0.00;;;21.30;70.60;;;;;;5022745;28;20694;-73
2023/09/02 11:40:19;;;;;;;0.00;0.00;;;21.30;70.50;;;;;;5000451;28;20046;-71
2023/09/02 11:42:55;;;;;;;0.00;0.00;;;21.30;70.40;;;;;;5001922;28;20041;-69
2023/09/02 11:45:23;;;;;;;0.30;0.30;;;21.30;69.10;;;;;;5003764;28;20052;-71
2023/09/02 11:47:50;;;;;;;0.00;0.00;;;21.40;70.00;;;;;;5003483;28;20072;-72
2023/09/02 11:50:19;;;;;;;0.00;0.00;;;21.50;70.50;;;;;;4986879;28;20042;-71
2023/09/02 11:52:45;;;;;;;0.10;0.10;;;21.50;70.40;;;;;;5020951;28;20057;-71
2023/09/02 11:55:13;;;;;;;0.00;0.00;;;21.50;68.90;;;;;;5001702;28;20693;-71
2023/09/02 11:57:39;;;;;;;0.00;0.00;;;21.60;69.20;;;;;;5001812;28;20482;-70
2023/09/02 12:00:07;;;;;;;0.00;0.00;;;21.60;68.60;;;;;;5019587;28;20048;-71
2023/09/02 12:02:37;;;;;;;0.00;0.00;;;21.60;67.80;;;;;;5001601;28;20862;-71
2023/09/02 12:05:03;;;;;;;0.00;0.00;;;21.60;66.20;;;;;;5002460;28;20046;-71
2023/09/02 12:07:31;;;;;;;0.00;0.00;;;21.70;67.60;;;;;;5019608;28;20132;-72
2023/09/02 12:09:57;;;;;;;0.00;0.00;;;21.70;67.50;;;;;;5013964;28;20072;-72
2023/09/02 12:12:23;;;;;;;0.00;0.00;;;21.60;67.50;;;;;;5001479;28;20064;-73
2023/09/02 12:14:49;;;;;;;0.00;0.00;;;21.50;67.40;;;;;;5019875;28;20049;-71
2023/09/02 12:17:15;;;;;;;0.00;0.00;;;21.50;67.40;;;;;;5000652;28;20056;-71
2023/09/02 12:19:41;;;;;;;0.00;0.00;;;21.50;67.30;;;;;;5001234;28;20053;-73
2023/09/02 12:22:07;;;;;;;0.00;0.00;;;21.50;67.50;;;;;;5018965;28;20103;-73
2023/09/02 12:24:33;;;;;;;0.00;0.00;;;21.60;67.80;;;;;;5001026;28;20060;-73
2023/09/02 12:26:58;;;;;;;0.00;0.00;;;21.80;67.10;;;;;;5000848;28;20095;-72
2023/09/02 12:29:24;;;;;;;0.00;0.00;;;21.80;67.10;;;;;;5018152;28;20041;-72
2023/09/02 12:31:58;;;;;;;0.00;0.00;;;22.00;67.40;;;;;;5002701;28;20061;-73
2023/09/02 12:34:24;;;;;;;0.00;0.00;;;21.90;66.40;;;;;;5018342;28;20046;-73
2023/09/02 12:36:50;;;;;;;0.00;0.00;;;21.90;65.80;;;;;;5002611;28;20130;-73
2023/09/02 12:39:27;;;;;;;0.00;0.00;;;22.00;65.40;;;;;;5020021;28;20118;-73
2023/09/02 12:41:53;;;;;;;0.00;0.00;;;22.00;65.60;;;;;;4999507;28;20046;-73
2023/09/02 12:44:19;;;;;;;0.00;0.00;;;22.00;64.50;;;;;;4999072;28;20647;-73
2023/09/02 12:46:46;;;;;;;0.00;0.00;;;22.10;65.10;;;;;;5016051;28;20057;-73
2023/09/02 12:49:15;;;;;;;0.00;0.00;;;22.10;64.40;;;;;;5000618;28;20045;-72
2023/09/02 12:51:40;;;;;;;0.00;0.00;;;22.30;65.30;;;;;;4967002;28;20042;-73